MBPV

Providenciales International Airport

Providenciales, , Turks and Caicos Islands
MBPV 241000Z 2412/2512 07005KT 9999 SCT015CB BECMG 2418/2420 09015KT
Issued Valid From Valid To
Sep-24 @ 10:00 UTC
(4 hours ago)
Sep-24 @ 12:00 UTC
(2 hours ago)
Sep-25 @ 12:00 UTC
(in 22 hours)
Sep-24 @ 12:00 to Sep-24 @ 18:00
MBPV 241000Z 2412/2512 07005KT 9999 SCT015CB
Wind Visibility Clouds
70° at 5 knots 10,000+ meters
  • Scattered at 1,500' AGL
Becoming Sep-24 @ 18:00 to Sep-25 @ 12:00
BECMG 2418/2420 09015KT
Wind Visibility Clouds
90° at 15 knots 10,000+ meters
  • Scattered at 1,500' AGL
MBPV 241000Z 2412/2512 07005KT 9999 SCT015CB BECMG 2418/2420 09015KT
Issued Sep-24 @ 10:00 UTC
(4 hours ago)
Valid From Sep-24 @ 12:00 UTC
(2 hours ago)
Valid To Sep-25 @ 12:00 UTC
(in 22 hours)
Sep-24 @ 12:00 - Sep-24 @ 18:00
Wind Visibility
70° at 5 knots 10,000+ meters
Clouds
  • Scattered at 1,500' AGL
Becoming Sep-24 @ 18:00 - Sep-25 @ 12:00
Wind Visibility
90° at 15 knots 10,000+ meters
Clouds
  • Scattered at 1,500' AGL